createdAt,value
2022-12-29T00:01:19.847Z,97.51
2022-12-29T00:04:17.998Z,97.26
2022-12-29T00:06:45.900Z,97.78
2022-12-29T00:09:17.931Z,98.03
2022-12-29T00:11:46.872Z,97.79
2022-12-29T00:17:29.055Z,97.99
2022-12-29T00:20:15.489Z,97.59
2022-12-29T00:32:55.989Z,98.00
2022-12-29T00:35:32.641Z,97.98
2022-12-29T00:38:46.466Z,97.26
2022-12-29T00:41:58.454Z,97.52
2022-12-29T00:44:26.436Z,97.60
2022-12-29T00:46:54.572Z,97.92
2022-12-29T00:49:33.142Z,97.73
2022-12-29T00:52:05.482Z,98.32
2022-12-29T00:54:37.317Z,98.26
2022-12-29T00:57:07.710Z,98.36
2022-12-29T00:59:39.485Z,98.52
2022-12-29T01:02:08.327Z,98.60
2022-12-29T01:04:36.444Z,98.51
2022-12-29T01:07:04.513Z,98.28
2022-12-29T01:09:51.725Z,98.97
2022-12-29T01:12:40.105Z,98.94
2022-12-29T01:15:11.694Z,98.81
2022-12-29T01:17:39.825Z,98.60
2022-12-29T01:20:08.062Z,98.24
2022-12-29T01:22:37.045Z,99.29
2022-12-29T01:25:30.016Z,98.59
2022-12-29T01:28:01.985Z,98.29
2022-12-29T01:30:29.878Z,98.38
2022-12-29T01:32:57.995Z,98.26
2022-12-29T01:35:25.858Z,98.14
2022-12-29T01:37:53.747Z,98.37
2022-12-29T01:40:22.932Z,98.97
2022-12-29T01:42:50.907Z,98.68
2022-12-29T01:45:19.653Z,99.06
2022-12-29T01:47:53.457Z,99.19
2022-12-29T01:50:41.240Z,99.28
2022-12-29T01:53:36.713Z,99.62
2022-12-29T01:56:09.423Z,99.10
2022-12-29T01:58:42.458Z,99.45
2022-12-29T02:01:11.582Z,99.34
2022-12-29T02:03:39.887Z,99.98
2022-12-29T02:09:19.750Z,99.42
2022-12-29T02:11:52.895Z,99.40
2022-12-29T02:14:25.979Z,99.23
2022-12-29T02:17:09.083Z,99.83
2022-12-29T02:19:49.717Z,99.24
2022-12-29T02:22:19.018Z,99.50
2022-12-29T02:25:24.469Z,99.43
2022-12-29T02:28:15.812Z,99.49
2022-12-29T02:30:57.889Z,99.32
2022-12-29T02:33:50.028Z,99.16
2022-12-29T02:36:54.025Z,99.09
2022-12-29T02:39:35.536Z,99.53
2022-12-29T02:42:23.915Z,99.47
2022-12-29T02:45:07.178Z,98.98
2022-12-29T02:47:42.730Z,98.90
2022-12-29T02:50:24.550Z,99.82
2022-12-29T02:53:03.787Z,99.58
2022-12-29T02:55:32.686Z,99.52
2022-12-29T02:58:31.070Z,100.00
2022-12-29T03:01:24.640Z,99.69
2022-12-29T03:07:20.045Z,99.62
2022-12-29T03:09:51.878Z,99.53
2022-12-29T03:12:54.707Z,99.54
2022-12-29T03:15:53.303Z,99.20
2022-12-29T03:18:47.066Z,99.19
2022-12-29T03:21:51.083Z,99.34
2022-12-29T03:24:25.013Z,99.84
2022-12-29T03:26:57.939Z,99.19
2022-12-29T03:29:59.041Z,99.21
2022-12-29T03:32:37.414Z,99.33
2022-12-29T03:35:08.596Z,98.92
2022-12-29T03:37:42.963Z,99.58
2022-12-29T03:40:11.103Z,99.66
2022-12-29T03:42:44.730Z,100.00
2022-12-29T03:45:13.376Z,99.79
2022-12-29T03:47:41.520Z,99.89
2022-12-29T03:50:10.089Z,99.98
2022-12-29T03:52:41.358Z,99.17
2022-12-29T03:55:09.612Z,99.85
2022-12-29T03:57:37.555Z,100.00
2022-12-29T04:00:11.109Z,99.30
2022-12-29T04:02:48.157Z,98.90
2022-12-29T04:05:22.100Z,100.00
2022-12-29T04:07:53.496Z,99.93
2022-12-29T04:10:22.017Z,100.00
2022-12-29T04:12:52.880Z,99.70
2022-12-29T04:15:21.034Z,99.98
2022-12-29T04:17:50.118Z,99.69
2022-12-29T04:20:36.890Z,99.28
2022-12-29T04:23:09.943Z,99.86
2022-12-29T04:25:39.088Z,99.18
2022-12-29T04:28:09.795Z,98.95
2022-12-29T04:30:50.922Z,99.26
2022-12-29T04:33:25.318Z,99.57
2022-12-29T04:35:55.720Z,99.01
2022-12-29T04:38:25.972Z,99.09
2022-12-29T04:40:54.133Z,99.68
2022-12-29T04:43:24.678Z,98.93
2022-12-29T04:46:08.981Z,99.41
2022-12-29T04:51:55.030Z,99.79
2022-12-29T04:54:24.608Z,99.82
2022-12-29T04:57:00.393Z,100.00
2022-12-29T04:59:28.307Z,99.74
2022-12-29T05:01:59.347Z,99.88
2022-12-29T05:04:27.430Z,99.87
2022-12-29T05:06:55.350Z,99.23
2022-12-29T05:09:24.973Z,99.19
2022-12-29T05:11:53.147Z,99.20
2022-12-29T05:14:21.137Z,99.13
2022-12-29T05:16:49.453Z,99.93
2022-12-29T05:19:18.932Z,99.87
2022-12-29T05:21:47.141Z,99.48
2022-12-29T05:24:15.950Z,99.83
2022-12-29T05:26:44.811Z,100.00
2022-12-29T05:29:31.389Z,99.33
2022-12-29T05:31:59.951Z,99.79
2022-12-29T05:34:28.357Z,99.68
2022-12-29T05:36:56.615Z,99.79
2022-12-29T05:39:25.491Z,99.36
2022-12-29T05:41:58.270Z,99.29
2022-12-29T05:44:38.057Z,99.73
2022-12-29T05:47:17.932Z,99.46
2022-12-29T05:50:04.755Z,99.41
2022-12-29T05:52:52.074Z,99.95
2022-12-29T05:55:20.734Z,99.79
2022-12-29T05:57:50.875Z,99.94
2022-12-29T06:00:19.268Z,99.67
2022-12-29T06:02:48.459Z,99.51
2022-12-29T06:05:19.203Z,99.20
2022-12-29T06:07:47.452Z,99.42
2022-12-29T06:10:18.004Z,99.26
2022-12-29T06:12:59.943Z,98.64
2022-12-29T06:15:27.985Z,98.62
2022-12-29T06:17:56.361Z,99.44
2022-12-29T06:20:24.748Z,99.21
2022-12-29T06:22:53.914Z,99.12
2022-12-29T06:25:21.874Z,99.43
2022-12-29T06:27:49.801Z,99.43
2022-12-29T06:30:18.015Z,99.84
2022-12-29T06:32:46.995Z,100.00
2022-12-29T06:35:15.528Z,99.65
2022-12-29T06:37:50.067Z,99.42
2022-12-29T06:40:19.167Z,99.55
2022-12-29T06:43:07.042Z,99.81
2022-12-29T06:45:55.579Z,99.65
2022-12-29T06:48:23.861Z,99.63
2022-12-29T06:50:51.753Z,100.00
2022-12-29T06:53:19.625Z,99.36
2022-12-29T06:55:47.681Z,100.00
2022-12-29T06:58:15.568Z,100.00
2022-12-29T07:00:43.511Z,100.00
2022-12-29T07:03:11.510Z,99.59
2022-12-29T07:05:39.389Z,100.00
2022-12-29T07:08:07.423Z,100.00
2022-12-29T07:10:35.946Z,100.00
2022-12-29T07:13:03.780Z,100.00
2022-12-29T07:15:32.669Z,100.00
2022-12-29T07:18:00.516Z,100.00
2022-12-29T07:20:28.401Z,99.86
2022-12-29T07:22:56.742Z,100.00
2022-12-29T07:25:24.867Z,100.00
2022-12-29T07:27:52.731Z,99.85
2022-12-29T07:30:20.682Z,100.00
2022-12-29T07:32:48.796Z,100.00
2022-12-29T07:35:16.705Z,99.49
2022-12-29T07:37:45.482Z,99.88
2022-12-29T07:40:14.014Z,100.00
2022-12-29T07:42:42.058Z,99.61
2022-12-29T07:45:11.391Z,99.54
2022-12-29T07:47:50.738Z,99.22
2022-12-29T07:50:18.715Z,99.88
2022-12-29T07:52:47.974Z,98.96
2022-12-29T07:55:16.949Z,99.45
2022-12-29T07:57:45.646Z,99.88
2022-12-29T08:00:14.294Z,99.52
2022-12-29T08:02:42.184Z,99.96
2022-12-29T08:05:10.137Z,99.49
2022-12-29T08:07:38.179Z,99.62
2022-12-29T08:10:06.635Z,99.93
2022-12-29T08:12:34.474Z,99.49
2022-12-29T08:15:02.961Z,99.74
2022-12-29T08:17:30.997Z,99.29
2022-12-29T08:19:59.141Z,98.46
2022-12-29T08:22:27.127Z,98.55
2022-12-29T08:24:55.134Z,99.15
2022-12-29T08:27:23.089Z,98.70
2022-12-29T08:29:51.243Z,99.26
2022-12-29T08:32:19.359Z,99.05
2022-12-29T08:34:47.677Z,98.92
2022-12-29T08:37:15.553Z,99.39
2022-12-29T08:39:43.429Z,98.97
2022-12-29T08:42:11.392Z,99.56
2022-12-29T08:44:39.260Z,98.83
2022-12-29T08:47:07.987Z,99.23
2022-12-29T08:49:35.829Z,98.96
2022-12-29T08:52:04.139Z,98.81
2022-12-29T08:54:32.035Z,97.59
2022-12-29T08:57:00.313Z,98.37
2022-12-29T08:59:35.624Z,97.85
2022-12-29T09:04:58.235Z,98.33
2022-12-29T09:07:26.102Z,98.46
2022-12-29T09:09:54.771Z,98.83
2022-12-29T09:12:23.968Z,98.04
2022-12-29T09:15:17.319Z,98.18
2022-12-29T09:17:50.063Z,97.90
2022-12-29T09:20:20.155Z,97.69
2022-12-29T09:23:14.063Z,97.89
2022-12-29T09:25:43.942Z,97.61
2022-12-29T09:28:11.958Z,98.06
2022-12-29T09:30:40.625Z,97.55
2022-12-29T09:33:09.006Z,96.90
2022-12-29T09:35:37.362Z,96.81
2022-12-29T09:38:05.265Z,96.46
2022-12-29T09:40:35.003Z,96.39
2022-12-29T09:43:29.081Z,96.32
2022-12-29T09:46:18.011Z,96.92
2022-12-29T09:48:51.683Z,96.19
2022-12-29T09:51:26.095Z,97.13
2022-12-29T09:54:02.007Z,95.91
2022-12-29T09:56:30.223Z,96.08
2022-12-29T09:59:17.293Z,94.67
2022-12-29T10:02:13.416Z,95.06
2022-12-29T10:04:43.169Z,94.21
2022-12-29T10:07:29.794Z,94.02
2022-12-29T10:10:11.909Z,92.42
2022-12-29T10:13:02.674Z,92.53
2022-12-29T10:15:48.531Z,92.59
2022-12-29T10:18:34.009Z,91.40
2022-12-29T10:21:34.837Z,91.95
2022-12-29T10:24:11.991Z,90.75
2022-12-29T10:27:11.919Z,89.38
2022-12-29T10:29:49.980Z,89.44
2022-12-29T10:32:31.507Z,89.73
2022-12-29T10:35:21.748Z,89.25
2022-12-29T10:38:18.894Z,89.59
2022-12-29T10:40:55.013Z,89.57
2022-12-29T10:43:29.791Z,88.72
2022-12-29T10:46:18.252Z,88.78
2022-12-29T10:48:47.703Z,88.27
2022-12-29T10:51:40.144Z,87.92
2022-12-29T10:54:43.437Z,87.16
2022-12-29T10:57:32.292Z,86.13
2022-12-29T11:00:00.231Z,86.44
2022-12-29T11:03:00.184Z,85.59
2022-12-29T11:05:47.198Z,87.62
2022-12-29T11:08:22.986Z,87.15
2022-12-29T11:11:05.190Z,86.41
2022-12-29T11:13:39.409Z,85.02
2022-12-29T11:16:07.973Z,85.92
2022-12-29T11:19:01.960Z,86.12
2022-12-29T11:21:43.346Z,86.06
2022-12-29T11:24:30.785Z,84.93
2022-12-29T11:27:15.542Z,83.48
2022-12-29T11:29:45.183Z,83.95
2022-12-29T11:32:27.847Z,83.03
2022-12-29T11:34:58.765Z,81.94
2022-12-29T11:37:40.195Z,82.05
2022-12-29T11:40:19.318Z,81.28
2022-12-29T11:43:03.060Z,81.98
2022-12-29T11:45:34.673Z,81.27
2022-12-29T11:48:10.053Z,81.27
2022-12-29T11:50:41.743Z,80.51
2022-12-29T11:53:40.025Z,79.65
2022-12-29T11:56:23.865Z,78.37
2022-12-29T11:58:54.383Z,77.78
2022-12-29T12:01:31.004Z,79.29
2022-12-29T12:04:13.039Z,77.49
2022-12-29T12:06:55.315Z,76.78
2022-12-29T12:09:30.287Z,78.07
2022-12-29T12:12:03.189Z,78.52
2022-12-29T12:14:33.081Z,77.31
2022-12-29T12:17:13.815Z,79.36
2022-12-29T12:20:25.640Z,79.10
2022-12-29T12:23:13.001Z,79.26
2022-12-29T12:25:47.004Z,80.66
2022-12-29T12:28:22.988Z,80.98
2022-12-29T12:30:57.082Z,80.14
2022-12-29T12:33:32.223Z,80.91
2022-12-29T12:36:45.984Z,81.61
2022-12-29T12:39:39.149Z,80.72
2022-12-29T12:42:21.407Z,82.47
2022-12-29T12:45:02.446Z,81.63
2022-12-29T12:47:54.227Z,81.84
2022-12-29T12:50:40.814Z,83.00
2022-12-29T12:53:15.206Z,81.76
2022-12-29T12:56:02.254Z,81.28
2022-12-29T12:58:36.589Z,82.52
2022-12-29T13:01:29.564Z,82.28
2022-12-29T13:04:04.084Z,82.47
2022-12-29T13:06:53.876Z,81.06
2022-12-29T13:09:34.425Z,79.54
2022-12-29T13:12:23.916Z,79.02
2022-12-29T13:15:48.387Z,80.22
2022-12-29T13:18:31.661Z,79.78
2022-12-29T13:21:07.030Z,78.34
2022-12-29T13:23:41.156Z,79.56
2022-12-29T13:26:15.053Z,79.34
2022-12-29T13:29:17.356Z,79.19
2022-12-29T13:32:04.078Z,76.86
2022-12-29T13:35:04.344Z,77.84
2022-12-29T13:37:37.194Z,77.52
2022-12-29T13:40:14.495Z,77.30
2022-12-29T13:42:44.274Z,76.78
2022-12-29T13:45:19.421Z,76.78
2022-12-29T13:50:59.623Z,74.86
2022-12-29T13:53:31.448Z,75.63
2022-12-29T13:59:21.047Z,76.28
2022-12-29T14:01:58.550Z,75.30
2022-12-29T14:04:30.373Z,75.94
2022-12-29T14:07:16.422Z,74.42
2022-12-29T14:09:52.577Z,76.69
2022-12-29T14:12:20.452Z,76.85
2022-12-29T14:14:48.641Z,76.99
2022-12-29T14:17:22.055Z,76.02
2022-12-29T14:19:54.454Z,77.32
2022-12-29T14:22:32.997Z,77.11
2022-12-29T14:25:01.657Z,76.55
2022-12-29T14:27:30.123Z,78.60
2022-12-29T14:29:58.000Z,76.81
2022-12-29T14:32:26.231Z,77.13
2022-12-29T14:35:00.544Z,78.50
2022-12-29T14:37:36.082Z,77.93
2022-12-29T14:40:17.933Z,78.35
2022-12-29T14:42:48.352Z,79.48
2022-12-29T14:45:16.218Z,79.10
2022-12-29T14:47:53.998Z,78.82
2022-12-29T14:50:21.928Z,78.07
2022-12-29T14:53:03.126Z,79.78
2022-12-29T14:55:41.938Z,79.81
2022-12-29T14:58:20.219Z,80.16
2022-12-29T15:00:49.212Z,81.44
2022-12-29T15:03:47.082Z,80.84
2022-12-29T15:06:19.804Z,80.57
2022-12-29T15:09:10.117Z,80.09
2022-12-29T15:11:40.683Z,79.83
2022-12-29T15:14:37.623Z,79.91
2022-12-29T15:17:25.699Z,80.38
2022-12-29T15:19:56.017Z,80.73
2022-12-29T15:22:25.023Z,80.00
2022-12-29T15:24:55.605Z,80.14
2022-12-29T15:27:26.016Z,81.51
2022-12-29T15:30:03.126Z,82.06
2022-12-29T15:32:43.592Z,82.54
2022-12-29T15:35:36.974Z,82.90
2022-12-29T15:38:17.045Z,83.76
2022-12-29T15:40:47.109Z,83.61
2022-12-29T15:43:24.377Z,84.40
2022-12-29T15:45:55.604Z,84.53
2022-12-29T15:48:26.180Z,84.68
2022-12-29T15:50:56.135Z,84.47
2022-12-29T15:53:33.271Z,84.11
2022-12-29T15:56:08.029Z,84.42
2022-12-29T15:58:45.589Z,83.99
2022-12-29T16:04:48.696Z,83.46
2022-12-29T16:07:27.644Z,84.10
2022-12-29T16:09:58.011Z,84.74
2022-12-29T16:12:32.571Z,84.70
2022-12-29T16:15:04.656Z,85.01
2022-12-29T16:17:37.795Z,85.44
2022-12-29T16:20:22.237Z,85.78
2022-12-29T16:22:55.383Z,85.29
2022-12-29T16:25:32.613Z,84.65
2022-12-29T16:28:01.064Z,85.06
2022-12-29T16:30:34.269Z,85.03
2022-12-29T16:33:04.877Z,85.47
2022-12-29T16:35:47.073Z,85.17
2022-12-29T16:38:41.728Z,85.46
2022-12-29T16:41:09.597Z,84.67
2022-12-29T16:43:42.974Z,85.41
2022-12-29T16:46:27.109Z,85.57
2022-12-29T16:48:57.862Z,86.51
2022-12-29T16:51:38.285Z,86.16
2022-12-29T16:54:08.138Z,86.96
2022-12-29T16:56:38.030Z,86.14
2022-12-29T16:59:18.638Z,85.63
2022-12-29T17:01:48.120Z,86.11
2022-12-29T17:04:16.287Z,86.38
2022-12-29T17:06:44.175Z,87.45
2022-12-29T17:12:23.066Z,87.04
2022-12-29T17:15:10.944Z,86.95
2022-12-29T17:17:42.982Z,86.66
2022-12-29T17:20:23.932Z,87.01
2022-12-29T17:22:56.467Z,87.89
2022-12-29T17:25:28.992Z,87.10
2022-12-29T17:28:03.099Z,87.78
2022-12-29T17:30:34.800Z,87.88
2022-12-29T17:36:31.228Z,87.63
2022-12-29T17:38:59.071Z,88.35
2022-12-29T17:41:37.275Z,88.40
2022-12-29T17:44:06.817Z,88.98
2022-12-29T17:46:34.906Z,88.71
2022-12-29T17:49:03.833Z,88.93
2022-12-29T17:51:32.120Z,89.55
2022-12-29T17:54:04.060Z,88.38
2022-12-29T17:56:32.915Z,89.42
2022-12-29T18:01:53.156Z,89.05
2022-12-29T18:04:21.412Z,89.53
2022-12-29T18:06:50.054Z,88.61
2022-12-29T18:09:18.421Z,89.20
2022-12-29T18:11:46.437Z,88.93
2022-12-29T18:14:16.087Z,89.90
2022-12-29T18:16:46.188Z,89.58
2022-12-29T18:19:14.123Z,90.12
2022-12-29T18:22:08.081Z,90.80
2022-12-29T18:24:35.919Z,89.55
2022-12-29T18:27:32.089Z,89.75
2022-12-29T18:29:59.942Z,91.18
2022-12-29T18:32:28.899Z,90.90
2022-12-29T18:34:56.971Z,90.21
2022-12-29T18:37:24.874Z,90.30
2022-12-29T18:39:53.114Z,90.73
2022-12-29T18:42:22.358Z,90.94
2022-12-29T18:44:50.637Z,90.65
2022-12-29T18:47:20.281Z,91.37
2022-12-29T18:49:48.761Z,92.13
2022-12-29T18:52:16.787Z,91.20
2022-12-29T18:54:44.865Z,90.40
2022-12-29T18:57:12.765Z,91.22
2022-12-29T18:59:42.100Z,91.49
2022-12-29T19:02:17.651Z,91.30
2022-12-29T19:04:50.049Z,90.81
2022-12-29T19:07:20.850Z,91.62
2022-12-29T19:12:42.038Z,90.73
2022-12-29T19:15:24.645Z,91.16
2022-12-29T19:26:38.090Z,91.96
2022-12-29T19:29:10.554Z,92.58
2022-12-29T19:31:39.283Z,93.21
2022-12-29T19:34:35.263Z,92.99
2022-12-29T19:37:04.118Z,92.31
2022-12-29T19:39:32.031Z,92.20
2022-12-29T19:42:05.349Z,92.35
2022-12-29T19:44:34.139Z,92.47
2022-12-29T19:47:02.012Z,92.71
2022-12-29T19:49:30.412Z,92.44
2022-12-29T19:51:58.987Z,92.32
2022-12-29T19:54:27.754Z,92.00
2022-12-29T19:56:55.611Z,92.53
2022-12-29T19:59:25.511Z,92.87
2022-12-29T20:01:57.216Z,92.96
2022-12-29T20:04:27.152Z,92.74
2022-12-29T20:06:55.047Z,93.25
2022-12-29T20:09:22.994Z,93.82
2022-12-29T20:11:51.761Z,92.85
2022-12-29T20:14:22.319Z,92.15
2022-12-29T20:17:10.351Z,93.76
2022-12-29T20:19:40.133Z,94.26
2022-12-29T20:22:09.340Z,93.07
2022-12-29T20:24:38.842Z,94.02
2022-12-29T20:27:11.063Z,93.23
2022-12-29T20:30:04.389Z,94.60
2022-12-29T20:32:35.721Z,94.80
2022-12-29T20:35:03.612Z,94.02
2022-12-29T20:37:34.112Z,93.87
2022-12-29T20:40:04.146Z,94.30
2022-12-29T20:42:31.994Z,94.41
2022-12-29T20:45:01.815Z,94.15
2022-12-29T20:47:29.889Z,94.90
2022-12-29T20:49:58.148Z,94.04
2022-12-29T20:52:25.971Z,94.06
2022-12-29T20:54:55.243Z,93.80
2022-12-29T20:57:23.261Z,94.58
2022-12-29T20:59:51.129Z,94.35
2022-12-29T21:02:24.311Z,94.45
2022-12-29T21:07:41.898Z,94.23
2022-12-29T21:10:09.764Z,94.15
2022-12-29T21:12:41.092Z,93.99
2022-12-29T21:15:09.579Z,94.67
2022-12-29T21:17:38.113Z,94.99
2022-12-29T21:20:06.332Z,94.46
2022-12-29T21:22:37.908Z,94.74
2022-12-29T21:25:06.235Z,94.16
2022-12-29T21:30:27.088Z,94.49
2022-12-29T21:32:55.916Z,94.64
2022-12-29T21:35:23.736Z,94.04
2022-12-29T21:37:55.282Z,94.13
2022-12-29T21:40:23.186Z,93.70
2022-12-29T21:42:51.177Z,94.65
2022-12-29T21:45:25.181Z,94.55
2022-12-29T21:48:13.467Z,94.20
2022-12-29T21:54:18.126Z,94.55
2022-12-29T21:56:48.476Z,94.95
2022-12-29T21:59:36.135Z,95.51
2022-12-29T22:02:23.457Z,95.19
2022-12-29T22:05:10.108Z,94.50
2022-12-29T22:07:56.952Z,95.47
2022-12-29T22:10:43.859Z,95.90
2022-12-29T22:13:11.737Z,95.11
2022-12-29T22:15:44.097Z,95.59
2022-12-29T22:18:12.037Z,95.37
2022-12-29T22:20:39.996Z,95.05
2022-12-29T22:23:07.857Z,94.83
2022-12-29T22:25:35.758Z,95.45
2022-12-29T22:28:04.115Z,95.67
2022-12-29T22:30:32.674Z,95.68
2022-12-29T22:33:06.105Z,94.99
2022-12-29T22:35:35.798Z,95.66
2022-12-29T22:38:03.970Z,94.99
2022-12-29T22:40:32.015Z,96.40
2022-12-29T22:43:00.038Z,95.71
2022-12-29T22:45:28.120Z,95.82
2022-12-29T22:47:56.781Z,95.11
2022-12-29T22:50:24.855Z,95.81
2022-12-29T22:52:54.256Z,95.59
2022-12-29T22:55:22.159Z,95.35
2022-12-29T22:57:53.798Z,95.66
2022-12-29T23:00:21.967Z,96.28
2022-12-29T23:02:49.989Z,96.19
2022-12-29T23:05:18.157Z,96.33
2022-12-29T23:07:46.015Z,95.75
2022-12-29T23:10:13.920Z,95.49
2022-12-29T23:12:44.253Z,95.40
2022-12-29T23:15:12.126Z,95.99
2022-12-29T23:17:39.974Z,95.45
2022-12-29T23:20:12.067Z,96.18
2022-12-29T23:22:40.829Z,95.09
2022-12-29T23:25:10.231Z,95.95
2022-12-29T23:27:38.049Z,95.34
2022-12-29T23:30:06.477Z,96.57
2022-12-29T23:33:03.062Z,95.84
2022-12-29T23:35:30.913Z,95.82
2022-12-29T23:38:01.334Z,95.91
2022-12-29T23:40:29.160Z,96.43
2022-12-29T23:42:56.987Z,95.97
2022-12-29T23:45:51.502Z,95.95
2022-12-29T23:48:19.707Z,96.41
2022-12-29T23:50:52.132Z,96.08
2022-12-29T23:53:20.047Z,96.62
2022-12-29T23:55:53.815Z,96.96
2022-12-29T23:58:47.110Z,96.46
